Time,TemperatureF,DewpointF,PressureIn,WindDirection,WindDirectionDegrees,WindSpeedMPH,WindSpeedGustMPH,Humidity,HourlyPrecipIn,Conditions,Clouds,dailyrainin,SoftwareType,DateUTC
2013-08-19 06:39:00,72.0,70.0,30.01,North,0,0.0,0.0,93,-99.99,,,0.00,WeatherSnoop3.0,2013-08-19 11:39:00,
2013-08-19 06:40:00,72.0,70.0,30.01,North,0,0.0,0.0,93,-99.99,,,0.00,WeatherSnoop3.0,2013-08-19 11:40:00,
2013-08-19 07:13:00,74.0,72.0,30.02,North,0,0.0,0.0,93,-99.99,,,0.00,WeatherSnoop3.0,2013-08-19 12:13:00,
2013-08-19 08:00:00,78.0,74.0,30.04,North,0,0.0,0.0,87,-99.99,,,0.00,WeatherSnoop3.0,2013-08-19 13:00:00,
2013-08-19 08:03:00,78.0,74.0,30.04,North,0,0.0,0.0,87,-99.99,,,0.00,WeatherSnoop3.0,2013-08-19 13:03:00,
2013-08-19 08:04:00,78.0,74.0,30.04,North,0,0.0,0.0,87,-99.99,,,0.00,WeatherSnoop3.0,2013-08-19 13:04:00,
2013-08-19 08:09:00,78.0,74.0,30.04,North,0,0.0,0.0,87,-99.99,,,0.00,WeatherSnoop3.0,2013-08-19 13:09:00,
2013-08-19 08:14:00,78.0,74.0,30.04,North,0,0.0,0.0,87,-99.99,,,0.00,WeatherSnoop3.0,2013-08-19 13:14:00,
2013-08-19 08:20:00,78.0,74.0,30.04,North,0,0.0,0.0,87,-99.99,,,0.00,WeatherSnoop3.0,2013-08-19 13:20:00,
2013-08-19 08:25:00,78.0,74.0,30.04,North,0,0.0,0.0,87,-99.99,,,0.00,WeatherSnoop3.0,2013-08-19 13:25:00,
2013-08-19 09:29:00,81.0,74.0,30.05,West,270,4.0,0.0,79,-99.99,,,0.00,WeatherSnoop3.0,2013-08-19 14:29:00,
2013-08-19 09:35:00,81.0,74.0,30.05,West,270,4.0,0.0,79,-99.99,,,0.00,WeatherSnoop3.0,2013-08-19 14:35:00,
2013-08-19 09:40:00,81.0,74.0,30.05,West,270,4.0,0.0,79,-99.99,,,0.00,WeatherSnoop3.0,2013-08-19 14:40:00,
2013-08-19 09:45:00,81.0,74.0,30.05,West,270,4.0,0.0,79,-99.99,,,0.00,WeatherSnoop3.0,2013-08-19 14:45:00,
2013-08-19 09:50:00,81.0,74.0,30.05,West,270,4.0,0.0,79,-99.99,,,0.00,WeatherSnoop3.0,2013-08-19 14:50:00,
2013-08-19 09:55:00,82.0,73.0,30.05,NNW,340,7.0,0.0,74,-99.99,,,0.00,WeatherSnoop3.0,2013-08-19 14:55:00,
2013-08-19 10:00:00,82.0,74.0,30.06,North,350,6.0,0.0,76,-99.99,,,0.00,WeatherSnoop3.0,2013-08-19 15:00:00,
2013-08-19 10:05:00,82.0,74.0,30.06,North,350,6.0,0.0,76,-99.99,,,0.00,WeatherSnoop3.0,2013-08-19 15:05:00,
2013-08-19 10:10:00,82.0,74.0,30.06,North,350,6.0,0.0,76,-99.99,,,0.00,WeatherSnoop3.0,2013-08-19 15:10:00,
2013-08-19 10:15:00,82.0,74.0,30.06,North,350,6.0,0.0,76,-99.99,,,0.00,WeatherSnoop3.0,2013-08-19 15:15:00,
2013-08-19 10:20:00,82.0,74.0,30.06,North,350,6.0,0.0,76,-99.99,,,0.00,WeatherSnoop3.0,2013-08-19 15:20:00,
2013-08-19 10:25:00,82.0,74.0,30.06,North,350,6.0,0.0,76,-99.99,,,0.00,WeatherSnoop3.0,2013-08-19 15:25:00,
2013-08-19 10:30:00,82.0,74.0,30.06,North,350,6.0,0.0,76,-99.99,,,0.00,WeatherSnoop3.0,2013-08-19 15:30:00,
2013-08-19 10:35:00,82.0,74.0,30.06,North,350,6.0,0.0,76,-99.99,,,0.00,WeatherSnoop3.0,2013-08-19 15:35:00,
2013-08-19 10:41:00,82.0,74.0,30.06,North,350,6.0,0.0,76,-99.99,,,0.00,WeatherSnoop3.0,2013-08-19 15:41:00,
2013-08-19 10:47:00,82.0,73.0,30.05,NNE,30,7.0,0.0,74,-99.99,,,0.00,WeatherSnoop3.0,2013-08-19 15:47:00,
2013-08-19 10:53:00,82.0,73.0,30.05,NNE,30,7.0,0.0,74,-99.99,,,0.00,WeatherSnoop3.0,2013-08-19 15:53:00,
2013-08-19 10:58:00,82.0,73.0,30.05,NNE,30,7.0,0.0,74,-99.99,,,0.00,WeatherSnoop3.0,2013-08-19 15:58:00,
2013-08-19 11:03:00,82.0,74.0,30.06,North,360,5.0,0.0,76,-99.99,,,0.00,WeatherSnoop3.0,2013-08-19 16:03:00,
2013-08-19 11:08:00,82.0,74.0,30.06,North,360,5.0,0.0,76,-99.99,,,0.00,WeatherSnoop3.0,2013-08-19 16:08:00,
2013-08-19 11:13:00,82.0,74.0,30.06,North,360,5.0,0.0,76,-99.99,,,0.00,WeatherSnoop3.0,2013-08-19 16:13:00,
2013-08-19 11:18:00,82.0,74.0,30.06,North,360,5.0,0.0,76,-99.99,,,0.00,WeatherSnoop3.0,2013-08-19 16:18:00,
2013-08-19 11:23:00,82.0,74.0,30.06,North,360,5.0,0.0,76,-99.99,,,0.00,WeatherSnoop3.0,2013-08-19 16:23:00,
2013-08-19 11:28:00,82.0,74.0,30.06,North,360,5.0,0.0,76,-99.99,,,0.00,WeatherSnoop3.0,2013-08-19 16:28:00,
2013-08-19 11:33:00,82.0,74.0,30.06,North,360,5.0,0.0,76,-99.99,,,0.00,WeatherSnoop3.0,2013-08-19 16:33:00,
2013-08-19 11:38:00,82.0,74.0,30.06,North,360,5.0,0.0,76,-99.99,,,0.00,WeatherSnoop3.0,2013-08-19 16:38:00,
2013-08-19 11:43:00,82.0,74.0,30.06,North,360,5.0,0.0,76,-99.99,,,0.00,WeatherSnoop3.0,2013-08-19 16:43:00,
2013-08-19 11:48:00,82.0,74.0,30.06,North,360,5.0,0.0,76,-99.99,,,0.00,WeatherSnoop3.0,2013-08-19 16:48:00,
2013-08-19 11:53:00,82.0,74.0,30.06,North,360,5.0,0.0,76,-99.99,,,0.00,WeatherSnoop3.0,2013-08-19 16:53:00,
2013-08-19 11:58:00,82.0,74.0,30.06,North,360,5.0,0.0,76,-99.99,,,0.00,WeatherSnoop3.0,2013-08-19 16:58:00,
2013-08-19 12:04:00,84.0,74.0,30.05,NNE,30,7.0,0.0,72,-99.99,,,0.00,WeatherSnoop3.0,2013-08-19 17:04:00,
2013-08-19 12:09:00,84.0,74.0,30.05,NNE,30,7.0,0.0,72,-99.99,,,0.00,WeatherSnoop3.0,2013-08-19 17:09:00,
2013-08-19 12:14:00,84.0,74.0,30.05,NNE,30,7.0,0.0,72,-99.99,,,0.00,WeatherSnoop3.0,2013-08-19 17:14:00,
2013-08-19 12:19:00,84.0,74.0,30.05,NNE,30,7.0,0.0,72,-99.99,,,0.00,WeatherSnoop3.0,2013-08-19 17:19:00,
2013-08-19 12:24:00,84.0,74.0,30.05,NNE,30,7.0,0.0,72,-99.99,,,0.00,WeatherSnoop3.0,2013-08-19 17:24:00,
2013-08-19 12:29:00,84.0,74.0,30.05,NNE,30,7.0,0.0,72,-99.99,,,0.00,WeatherSnoop3.0,2013-08-19 17:29:00,
2013-08-19 12:39:00,84.0,74.0,30.05,NNE,30,7.0,0.0,72,-99.99,,,0.00,WeatherSnoop3.0,2013-08-19 17:39:00,
2013-08-19 12:44:00,84.0,74.0,30.05,NNE,30,7.0,0.0,72,-99.99,,,0.00,WeatherSnoop3.0,2013-08-19 17:44:00,
2013-08-19 12:49:00,84.0,74.0,30.05,NNE,30,7.0,0.0,72,-99.99,,,0.00,WeatherSnoop3.0,2013-08-19 17:49:00,
2013-08-19 12:54:00,84.0,74.0,30.05,NNE,30,7.0,0.0,72,-99.99,,,0.00,WeatherSnoop3.0,2013-08-19 17:54:00,
2013-08-19 12:59:00,84.0,74.0,30.05,NNE,30,7.0,0.0,72,-99.99,,,0.00,WeatherSnoop3.0,2013-08-19 17:59:00,
2013-08-19 13:04:00,86.0,74.0,30.03,NE,40,9.0,0.0,67,-99.99,,,0.00,WeatherSnoop3.0,2013-08-19 18:04:00,
2013-08-19 13:09:00,86.0,74.0,30.03,NE,40,9.0,0.0,67,-99.99,,,0.00,WeatherSnoop3.0,2013-08-19 18:09:00,
2013-08-19 13:14:00,86.0,74.0,30.03,NE,40,9.0,0.0,67,-99.99,,,0.00,WeatherSnoop3.0,2013-08-19 18:14:00,
2013-08-19 13:19:00,86.0,74.0,30.03,NE,40,9.0,0.0,67,-99.99,,,0.00,WeatherSnoop3.0,2013-08-19 18:19:00,
2013-08-19 13:24:00,86.0,74.0,30.03,NE,40,9.0,0.0,67,-99.99,,,0.00,WeatherSnoop3.0,2013-08-19 18:24:00,
2013-08-19 13:29:00,86.0,74.0,30.03,NE,40,9.0,0.0,67,-99.99,,,0.00,WeatherSnoop3.0,2013-08-19 18:29:00,
2013-08-19 13:34:00,86.0,74.0,30.03,NE,40,9.0,0.0,67,-99.99,,,0.00,WeatherSnoop3.0,2013-08-19 18:34:00,
2013-08-19 13:39:00,86.0,74.0,30.03,NE,40,9.0,0.0,67,-99.99,,,0.00,WeatherSnoop3.0,2013-08-19 18:39:00,
2013-08-19 13:44:00,86.0,74.0,30.03,NE,40,9.0,0.0,67,-99.99,,,0.00,WeatherSnoop3.0,2013-08-19 18:44:00,
2013-08-19 13:50:00,86.0,74.0,30.03,NE,40,9.0,0.0,67,-99.99,,,0.00,WeatherSnoop3.0,2013-08-19 18:50:00,
2013-08-19 13:55:00,86.0,74.0,30.03,NE,40,9.0,0.0,67,-99.99,,,0.00,WeatherSnoop3.0,2013-08-19 18:55:00,
2013-08-19 18:13:00,76.0,74.0,30.00,North,360,7.0,0.0,94,-99.99,,,0.64,WeatherSnoop3.0,2013-08-19 23:13:00,
2013-08-19 18:18:00,76.0,74.0,30.00,North,360,7.0,0.0,94,-99.99,,,0.64,WeatherSnoop3.0,2013-08-19 23:18:00,
2013-08-19 18:23:00,76.0,74.0,30.00,North,360,7.0,0.0,94,-99.99,,,0.64,WeatherSnoop3.0,2013-08-19 23:23:00,
2013-08-19 18:28:00,77.0,73.0,29.99,North,0,0.0,0.0,89,-99.99,,,0.64,WeatherSnoop3.0,2013-08-19 23:28:00,
2013-08-19 18:33:00,77.0,73.0,29.99,North,0,0.0,0.0,89,-99.99,,,0.64,WeatherSnoop3.0,2013-08-19 23:33:00,
2013-08-19 18:39:00,77.0,73.0,29.99,North,0,0.0,0.0,89,-99.99,,,0.64,WeatherSnoop3.0,2013-08-19 23:39:00,
2013-08-19 19:09:00,78.0,75.0,30.00,North,0,0.0,0.0,90,-99.99,,,0.65,WeatherSnoop3.0,2013-08-20 00:09:00,
2013-08-19 19:20:00,78.0,75.0,30.00,North,0,0.0,0.0,90,-99.99,,,0.65,WeatherSnoop3.0,2013-08-20 00:20:00,
2013-08-19 19:33:00,78.0,75.0,30.00,North,0,0.0,0.0,90,-99.99,,,0.65,WeatherSnoop3.0,2013-08-20 00:33:00,
2013-08-19 19:38:00,78.0,75.0,30.00,North,0,0.0,0.0,90,-99.99,,,0.65,WeatherSnoop3.0,2013-08-20 00:38:00,
2013-08-19 19:43:00,78.0,75.0,30.00,North,0,0.0,0.0,90,-99.99,,,0.65,WeatherSnoop3.0,2013-08-20 00:43:00,
2013-08-19 19:48:00,78.0,75.0,30.00,North,0,0.0,0.0,90,-99.99,,,0.65,WeatherSnoop3.0,2013-08-20 00:48:00,
2013-08-19 19:53:00,78.0,75.0,30.00,North,0,0.0,0.0,90,-99.99,,,0.65,WeatherSnoop3.0,2013-08-20 00:53:00,
2013-08-19 19:58:00,78.0,75.0,30.00,North,0,0.0,0.0,90,-99.99,,,0.65,WeatherSnoop3.0,2013-08-20 00:58:00,
2013-08-19 20:03:00,78.0,75.0,30.00,North,0,0.0,0.0,90,-99.99,,,0.65,WeatherSnoop3.0,2013-08-20 01:03:00,
2013-08-19 20:08:00,78.0,75.0,29.99,East,80,4.0,0.0,90,-99.99,,,0.65,WeatherSnoop3.0,2013-08-20 01:08:00,
2013-08-19 20:13:00,78.0,75.0,29.99,East,80,4.0,0.0,90,-99.99,,,0.65,WeatherSnoop3.0,2013-08-20 01:13:00,
2013-08-19 20:18:00,78.0,75.0,29.99,East,80,4.0,0.0,90,-99.99,,,0.65,WeatherSnoop3.0,2013-08-20 01:18:00,
2013-08-19 20:23:00,78.0,75.0,29.99,East,80,4.0,0.0,90,-99.99,,,0.65,WeatherSnoop3.0,2013-08-20 01:23:00,
2013-08-19 20:28:00,78.0,75.0,29.99,East,80,4.0,0.0,90,-99.99,,,0.65,WeatherSnoop3.0,2013-08-20 01:28:00,
2013-08-19 20:34:00,78.0,75.0,29.99,East,80,4.0,0.0,90,-99.99,,,0.65,WeatherSnoop3.0,2013-08-20 01:34:00,
2013-08-19 20:40:00,78.0,75.0,29.99,East,80,4.0,0.0,90,-99.99,,,0.65,WeatherSnoop3.0,2013-08-20 01:40:00,
2013-08-19 20:49:00,78.0,75.0,29.99,East,80,4.0,0.0,90,-99.99,,,0.65,WeatherSnoop3.0,2013-08-20 01:49:00,
2013-08-19 20:58:00,78.0,75.0,30.00,North,0,0.0,0.0,90,-99.99,,,0.65,WeatherSnoop3.0,2013-08-20 01:58:00,
2013-08-19 21:07:00,78.0,75.0,30.00,North,0,0.0,0.0,90,-99.99,,,0.65,WeatherSnoop3.0,2013-08-20 02:07:00,
2013-08-19 21:12:00,78.0,75.0,30.00,North,0,0.0,0.0,90,-99.99,,,0.65,WeatherSnoop3.0,2013-08-20 02:12:00,
2013-08-19 21:19:00,78.0,75.0,30.00,North,0,0.0,0.0,90,-99.99,,,0.65,WeatherSnoop3.0,2013-08-20 02:19:00,
2013-08-19 21:28:00,78.0,75.0,30.00,North,0,0.0,0.0,90,-99.99,,,0.65,WeatherSnoop3.0,2013-08-20 02:28:00,